sensor_id;sensor_type;location;lat;lon;timestamp;P1;durP1;ratioP1;P2;durP2;ratioP2
6392;SDS011;3229;42.674;23.282;2022-11-06T00:00:52;21.33;;;14.70;;
6392;SDS011;3229;42.674;23.282;2022-11-06T00:03:19;21.87;;;14.27;;
6392;SDS011;3229;42.674;23.282;2022-11-06T00:05:48;24.60;;;14.63;;
6392;SDS011;3229;42.674;23.282;2022-11-06T00:08:33;21.70;;;15.20;;
6392;SDS011;3229;42.674;23.282;2022-11-06T00:11:06;21.87;;;14.07;;
6392;SDS011;3229;42.674;23.282;2022-11-06T00:13:36;26.70;;;14.53;;
6392;SDS011;3229;42.674;23.282;2022-11-06T00:16:04;24.90;;;14.40;;
6392;SDS011;3229;42.674;23.282;2022-11-06T00:18:32;20.77;;;14.43;;
6392;SDS011;3229;42.674;23.282;2022-11-06T00:21:06;18.80;;;14.43;;
6392;SDS011;3229;42.674;23.282;2022-11-06T00:23:34;19.67;;;14.73;;
6392;SDS011;3229;42.674;23.282;2022-11-06T00:26:03;21.53;;;14.50;;
6392;SDS011;3229;42.674;23.282;2022-11-06T00:28:31;23.87;;;14.70;;
6392;SDS011;3229;42.674;23.282;2022-11-06T00:31:08;21.67;;;15.73;;
6392;SDS011;3229;42.674;23.282;2022-11-06T00:33:36;23.20;;;15.10;;
6392;SDS011;3229;42.674;23.282;2022-11-06T00:36:04;21.00;;;14.13;;
6392;SDS011;3229;42.674;23.282;2022-11-06T00:38:33;17.90;;;14.00;;
6392;SDS011;3229;42.674;23.282;2022-11-06T00:41:00;20.83;;;14.53;;
6392;SDS011;3229;42.674;23.282;2022-11-06T00:43:27;23.70;;;14.73;;
6392;SDS011;3229;42.674;23.282;2022-11-06T00:45:59;21.83;;;15.27;;
6392;SDS011;3229;42.674;23.282;2022-11-06T00:48:26;22.57;;;15.00;;
6392;SDS011;3229;42.674;23.282;2022-11-06T00:50:53;22.03;;;15.13;;
6392;SDS011;3229;42.674;23.282;2022-11-06T00:53:21;23.43;;;15.80;;
6392;SDS011;3229;42.674;23.282;2022-11-06T00:55:48;25.73;;;14.47;;
6392;SDS011;3229;42.674;23.282;2022-11-06T00:58:15;18.73;;;14.87;;
6392;SDS011;3229;42.674;23.282;2022-11-06T01:00:42;25.07;;;16.13;;
6392;SDS011;3229;42.674;23.282;2022-11-06T01:03:09;21.57;;;14.73;;
6392;SDS011;3229;42.674;23.282;2022-11-06T01:05:35;22.67;;;14.93;;
6392;SDS011;3229;42.674;23.282;2022-11-06T01:08:02;19.23;;;14.90;;
6392;SDS011;3229;42.674;23.282;2022-11-06T01:10:31;23.73;;;15.40;;
6392;SDS011;3229;42.674;23.282;2022-11-06T01:12:57;28.47;;;15.63;;
6392;SDS011;3229;42.674;23.282;2022-11-06T01:15:24;20.03;;;15.40;;
6392;SDS011;3229;42.674;23.282;2022-11-06T01:17:51;22.27;;;14.60;;
6392;SDS011;3229;42.674;23.282;2022-11-06T01:20:18;25.37;;;14.67;;
6392;SDS011;3229;42.674;23.282;2022-11-06T01:22:45;22.17;;;15.13;;
6392;SDS011;3229;42.674;23.282;2022-11-06T01:25:12;22.47;;;15.30;;
6392;SDS011;3229;42.674;23.282;2022-11-06T01:27:41;21.30;;;15.47;;
6392;SDS011;3229;42.674;23.282;2022-11-06T01:30:08;24.37;;;15.33;;
6392;SDS011;3229;42.674;23.282;2022-11-06T01:32:36;20.37;;;16.03;;
6392;SDS011;3229;42.674;23.282;2022-11-06T01:35:03;25.37;;;15.83;;
6392;SDS011;3229;42.674;23.282;2022-11-06T01:37:30;21.20;;;14.53;;
6392;SDS011;3229;42.674;23.282;2022-11-06T01:39:58;25.00;;;15.83;;
6392;SDS011;3229;42.674;23.282;2022-11-06T01:42:25;22.90;;;15.70;;
6392;SDS011;3229;42.674;23.282;2022-11-06T01:47:46;21.87;;;16.33;;
6392;SDS011;3229;42.674;23.282;2022-11-06T01:50:14;25.93;;;15.93;;
6392;SDS011;3229;42.674;23.282;2022-11-06T01:52:42;26.63;;;15.73;;
6392;SDS011;3229;42.674;23.282;2022-11-06T01:55:13;21.17;;;15.30;;
6392;SDS011;3229;42.674;23.282;2022-11-06T01:57:44;23.63;;;14.73;;
6392;SDS011;3229;42.674;23.282;2022-11-06T02:00:12;21.20;;;14.83;;
6392;SDS011;3229;42.674;23.282;2022-11-06T02:02:41;25.43;;;15.80;;
6392;SDS011;3229;42.674;23.282;2022-11-06T02:05:10;23.13;;;15.67;;
6392;SDS011;3229;42.674;23.282;2022-11-06T02:07:37;19.87;;;14.37;;
6392;SDS011;3229;42.674;23.282;2022-11-06T02:10:06;21.27;;;14.73;;
6392;SDS011;3229;42.674;23.282;2022-11-06T02:12:43;22.27;;;14.23;;
6392;SDS011;3229;42.674;23.282;2022-11-06T02:15:34;20.77;;;14.03;;
6392;SDS011;3229;42.674;23.282;2022-11-06T02:18:14;20.43;;;13.83;;
6392;SDS011;3229;42.674;23.282;2022-11-06T02:20:56;22.60;;;13.63;;
6392;SDS011;3229;42.674;23.282;2022-11-06T02:23:46;18.20;;;12.43;;
6392;SDS011;3229;42.674;23.282;2022-11-06T02:26:31;20.27;;;13.50;;
6392;SDS011;3229;42.674;23.282;2022-11-06T02:29:14;22.40;;;13.27;;
6392;SDS011;3229;42.674;23.282;2022-11-06T02:31:45;18.33;;;12.97;;
6392;SDS011;3229;42.674;23.282;2022-11-06T02:34:14;18.83;;;12.73;;
6392;SDS011;3229;42.674;23.282;2022-11-06T02:36:46;14.43;;;12.10;;
6392;SDS011;3229;42.674;23.282;2022-11-06T02:39:19;23.87;;;12.33;;
6392;SDS011;3229;42.674;23.282;2022-11-06T02:41:51;15.40;;;10.90;;
6392;SDS011;3229;42.674;23.282;2022-11-06T02:44:23;17.97;;;11.73;;
6392;SDS011;3229;42.674;23.282;2022-11-06T02:46:52;15.10;;;10.90;;
6392;SDS011;3229;42.674;23.282;2022-11-06T02:49:23;16.87;;;11.07;;
6392;SDS011;3229;42.674;23.282;2022-11-06T02:51:55;14.33;;;10.60;;
6392;SDS011;3229;42.674;23.282;2022-11-06T02:54:26;14.00;;;10.00;;
6392;SDS011;3229;42.674;23.282;2022-11-06T02:57:02;14.67;;;10.17;;
6392;SDS011;3229;42.674;23.282;2022-11-06T02:59:35;14.57;;;9.13;;
6392;SDS011;3229;42.674;23.282;2022-11-06T03:02:09;15.07;;;9.90;;
6392;SDS011;3229;42.674;23.282;2022-11-06T03:04:44;11.33;;;8.67;;
6392;SDS011;3229;42.674;23.282;2022-11-06T03:07:14;12.70;;;8.37;;
6392;SDS011;3229;42.674;23.282;2022-11-06T03:09:47;14.30;;;8.43;;
6392;SDS011;3229;42.674;23.282;2022-11-06T03:12:22;15.30;;;8.17;;
6392;SDS011;3229;42.674;23.282;2022-11-06T03:14:55;14.47;;;7.87;;
6392;SDS011;3229;42.674;23.282;2022-11-06T03:17:28;14.97;;;8.27;;
6392;SDS011;3229;42.674;23.282;2022-11-06T03:20:05;10.50;;;7.73;;
6392;SDS011;3229;42.674;23.282;2022-11-06T03:22:43;12.07;;;7.73;;
6392;SDS011;3229;42.674;23.282;2022-11-06T03:25:17;10.30;;;7.27;;
6392;SDS011;3229;42.674;23.282;2022-11-06T03:27:51;10.80;;;7.40;;
6392;SDS011;3229;42.674;23.282;2022-11-06T03:33:31;9.60;;;6.87;;
6392;SDS011;3229;42.674;23.282;2022-11-06T03:36:04;13.80;;;7.17;;
6392;SDS011;3229;42.674;23.282;2022-11-06T03:38:36;10.33;;;6.97;;
6392;SDS011;3229;42.674;23.282;2022-11-06T03:41:07;11.83;;;6.90;;
6392;SDS011;3229;42.674;23.282;2022-11-06T03:43:41;10.80;;;6.53;;
6392;SDS011;3229;42.674;23.282;2022-11-06T03:49:02;10.03;;;6.67;;
6392;SDS011;3229;42.674;23.282;2022-11-06T03:51:36;11.13;;;6.23;;
6392;SDS011;3229;42.674;23.282;2022-11-06T03:54:06;10.43;;;7.20;;
6392;SDS011;3229;42.674;23.282;2022-11-06T03:56:39;12.40;;;7.30;;
6392;SDS011;3229;42.674;23.282;2022-11-06T03:59:11;9.93;;;6.10;;
6392;SDS011;3229;42.674;23.282;2022-11-06T04:01:43;11.37;;;6.80;;
6392;SDS011;3229;42.674;23.282;2022-11-06T04:04:13;9.97;;;6.40;;
6392;SDS011;3229;42.674;23.282;2022-11-06T04:06:47;8.83;;;6.30;;
6392;SDS011;3229;42.674;23.282;2022-11-06T04:09:19;8.83;;;7.20;;
6392;SDS011;3229;42.674;23.282;2022-11-06T04:12:07;8.63;;;6.37;;
6392;SDS011;3229;42.674;23.282;2022-11-06T04:14:57;8.07;;;6.60;;
6392;SDS011;3229;42.674;23.282;2022-11-06T04:17:25;9.80;;;6.80;;
6392;SDS011;3229;42.674;23.282;2022-11-06T04:19:54;11.13;;;7.57;;
6392;SDS011;3229;42.674;23.282;2022-11-06T04:22:30;9.23;;;6.20;;
6392;SDS011;3229;42.674;23.282;2022-11-06T04:25:11;8.80;;;6.23;;
6392;SDS011;3229;42.674;23.282;2022-11-06T04:28:17;9.53;;;6.20;;
6392;SDS011;3229;42.674;23.282;2022-11-06T04:30:55;13.20;;;7.40;;
6392;SDS011;3229;42.674;23.282;2022-11-06T04:33:33;11.10;;;6.67;;
6392;SDS011;3229;42.674;23.282;2022-11-06T04:36:10;9.27;;;6.87;;
6392;SDS011;3229;42.674;23.282;2022-11-06T04:38:46;10.20;;;6.87;;
6392;SDS011;3229;42.674;23.282;2022-11-06T04:41:20;13.03;;;7.17;;
6392;SDS011;3229;42.674;23.282;2022-11-06T04:43:59;11.33;;;6.63;;
6392;SDS011;3229;42.674;23.282;2022-11-06T04:46:31;11.37;;;6.80;;
6392;SDS011;3229;42.674;23.282;2022-11-06T04:49:02;10.10;;;6.47;;
6392;SDS011;3229;42.674;23.282;2022-11-06T04:51:32;12.63;;;7.10;;
6392;SDS011;3229;42.674;23.282;2022-11-06T04:54:05;13.20;;;6.50;;
6392;SDS011;3229;42.674;23.282;2022-11-06T04:56:35;9.57;;;6.57;;
6392;SDS011;3229;42.674;23.282;2022-11-06T04:59:02;9.97;;;6.63;;
6392;SDS011;3229;42.674;23.282;2022-11-06T05:01:31;9.63;;;6.97;;
6392;SDS011;3229;42.674;23.282;2022-11-06T05:03:58;10.30;;;6.33;;
6392;SDS011;3229;42.674;23.282;2022-11-06T05:06:25;10.27;;;6.43;;
6392;SDS011;3229;42.674;23.282;2022-11-06T05:08:52;10.50;;;6.13;;
6392;SDS011;3229;42.674;23.282;2022-11-06T05:11:19;11.53;;;6.37;;
6392;SDS011;3229;42.674;23.282;2022-11-06T05:13:46;9.83;;;6.40;;
6392;SDS011;3229;42.674;23.282;2022-11-06T05:16:13;13.37;;;7.13;;
6392;SDS011;3229;42.674;23.282;2022-11-06T05:18:41;12.60;;;7.37;;
6392;SDS011;3229;42.674;23.282;2022-11-06T05:21:08;7.07;;;5.87;;
6392;SDS011;3229;42.674;23.282;2022-11-06T05:23:53;14.07;;;6.43;;
6392;SDS011;3229;42.674;23.282;2022-11-06T05:26:20;8.37;;;5.90;;
6392;SDS011;3229;42.674;23.282;2022-11-06T05:28:50;11.00;;;6.63;;
6392;SDS011;3229;42.674;23.282;2022-11-06T05:31:17;8.20;;;6.60;;
6392;SDS011;3229;42.674;23.282;2022-11-06T05:33:48;10.30;;;6.30;;
6392;SDS011;3229;42.674;23.282;2022-11-06T05:36:18;7.93;;;6.37;;
6392;SDS011;3229;42.674;23.282;2022-11-06T05:38:45;10.97;;;6.40;;
6392;SDS011;3229;42.674;23.282;2022-11-06T05:41:12;7.77;;;6.17;;
6392;SDS011;3229;42.674;23.282;2022-11-06T05:43:38;8.37;;;5.80;;
6392;SDS011;3229;42.674;23.282;2022-11-06T05:46:08;10.70;;;6.20;;
6392;SDS011;3229;42.674;23.282;2022-11-06T05:48:35;11.43;;;6.33;;
6392;SDS011;3229;42.674;23.282;2022-11-06T05:51:04;9.80;;;6.10;;
6392;SDS011;3229;42.674;23.282;2022-11-06T05:53:34;9.80;;;6.40;;
6392;SDS011;3229;42.674;23.282;2022-11-06T05:56:02;7.90;;;6.30;;
6392;SDS011;3229;42.674;23.282;2022-11-06T05:58:30;13.07;;;6.60;;
6392;SDS011;3229;42.674;23.282;2022-11-06T06:00:57;8.23;;;6.13;;
6392;SDS011;3229;42.674;23.282;2022-11-06T06:03:24;11.77;;;6.90;;
6392;SDS011;3229;42.674;23.282;2022-11-06T06:05:51;10.00;;;6.30;;
6392;SDS011;3229;42.674;23.282;2022-11-06T06:08:20;10.83;;;7.17;;
6392;SDS011;3229;42.674;23.282;2022-11-06T06:10:49;9.50;;;6.37;;
6392;SDS011;3229;42.674;23.282;2022-11-06T06:13:19;9.57;;;5.90;;
6392;SDS011;3229;42.674;23.282;2022-11-06T06:15:46;9.40;;;6.60;;
6392;SDS011;3229;42.674;23.282;2022-11-06T06:18:15;10.77;;;6.80;;
6392;SDS011;3229;42.674;23.282;2022-11-06T06:20:42;9.37;;;6.23;;
6392;SDS011;3229;42.674;23.282;2022-11-06T06:23:09;14.27;;;6.63;;
6392;SDS011;3229;42.674;23.282;2022-11-06T06:25:37;14.17;;;7.00;;
6392;SDS011;3229;42.674;23.282;2022-11-06T06:28:04;7.83;;;6.00;;
6392;SDS011;3229;42.674;23.282;2022-11-06T06:30:31;9.57;;;6.57;;
6392;SDS011;3229;42.674;23.282;2022-11-06T06:33:02;9.27;;;6.80;;
6392;SDS011;3229;42.674;23.282;2022-11-06T06:35:29;11.60;;;6.77;;
6392;SDS011;3229;42.674;23.282;2022-11-06T06:38:01;9.50;;;6.77;;
6392;SDS011;3229;42.674;23.282;2022-11-06T06:40:35;14.63;;;7.43;;
6392;SDS011;3229;42.674;23.282;2022-11-06T06:43:05;11.80;;;7.33;;
6392;SDS011;3229;42.674;23.282;2022-11-06T06:45:32;11.00;;;7.13;;
6392;SDS011;3229;42.674;23.282;2022-11-06T06:48:03;12.63;;;7.80;;
6392;SDS011;3229;42.674;23.282;2022-11-06T06:50:31;11.13;;;7.07;;
6392;SDS011;3229;42.674;23.282;2022-11-06T06:52:58;13.03;;;7.37;;
6392;SDS011;3229;42.674;23.282;2022-11-06T06:55:28;12.10;;;6.93;;
6392;SDS011;3229;42.674;23.282;2022-11-06T06:58:00;9.17;;;6.73;;
6392;SDS011;3229;42.674;23.282;2022-11-06T07:00:31;11.27;;;8.67;;
6392;SDS011;3229;42.674;23.282;2022-11-06T07:02:58;12.33;;;7.30;;
6392;SDS011;3229;42.674;23.282;2022-11-06T07:05:26;11.90;;;6.73;;
6392;SDS011;3229;42.674;23.282;2022-11-06T07:07:53;8.77;;;6.77;;
6392;SDS011;3229;42.674;23.282;2022-11-06T07:10:20;11.83;;;8.47;;
6392;SDS011;3229;42.674;23.282;2022-11-06T07:12:47;12.60;;;8.27;;
6392;SDS011;3229;42.674;23.282;2022-11-06T07:15:16;13.27;;;7.90;;
6392;SDS011;3229;42.674;23.282;2022-11-06T07:17:43;10.37;;;7.13;;
6392;SDS011;3229;42.674;23.282;2022-11-06T07:20:10;12.40;;;7.30;;
6392;SDS011;3229;42.674;23.282;2022-11-06T07:22:37;11.27;;;7.13;;
6392;SDS011;3229;42.674;23.282;2022-11-06T07:25:04;12.63;;;8.30;;
6392;SDS011;3229;42.674;23.282;2022-11-06T07:27:32;11.67;;;8.10;;
6392;SDS011;3229;42.674;23.282;2022-11-06T07:30:08;12.47;;;8.13;;
6392;SDS011;3229;42.674;23.282;2022-11-06T07:32:37;10.47;;;7.77;;
6392;SDS011;3229;42.674;23.282;2022-11-06T07:35:04;12.00;;;7.83;;
6392;SDS011;3229;42.674;23.282;2022-11-06T07:37:34;11.97;;;7.97;;
6392;SDS011;3229;42.674;23.282;2022-11-06T07:40:03;10.23;;;7.70;;
6392;SDS011;3229;42.674;23.282;2022-11-06T07:42:33;11.13;;;7.40;;
6392;SDS011;3229;42.674;23.282;2022-11-06T07:45:03;17.13;;;7.63;;
6392;SDS011;3229;42.674;23.282;2022-11-06T07:47:32;10.83;;;8.13;;
6392;SDS011;3229;42.674;23.282;2022-11-06T07:50:03;11.73;;;7.57;;
6392;SDS011;3229;42.674;23.282;2022-11-06T07:52:31;14.37;;;8.23;;
6392;SDS011;3229;42.674;23.282;2022-11-06T07:54:59;12.37;;;7.97;;
6392;SDS011;3229;42.674;23.282;2022-11-06T07:57:29;11.17;;;7.73;;
6392;SDS011;3229;42.674;23.282;2022-11-06T08:00:00;11.63;;;7.60;;
6392;SDS011;3229;42.674;23.282;2022-11-06T08:02:28;11.80;;;8.23;;
6392;SDS011;3229;42.674;23.282;2022-11-06T08:04:55;12.33;;;7.60;;
6392;SDS011;3229;42.674;23.282;2022-11-06T08:07:25;14.37;;;8.20;;
6392;SDS011;3229;42.674;23.282;2022-11-06T08:09:52;13.30;;;8.80;;
6392;SDS011;3229;42.674;23.282;2022-11-06T08:12:22;12.00;;;8.57;;
6392;SDS011;3229;42.674;23.282;2022-11-06T08:14:49;13.20;;;8.37;;
6392;SDS011;3229;42.674;23.282;2022-11-06T08:17:19;16.63;;;9.67;;
6392;SDS011;3229;42.674;23.282;2022-11-06T08:19:48;20.50;;;9.73;;
6392;SDS011;3229;42.674;23.282;2022-11-06T08:22:17;16.87;;;8.70;;
6392;SDS011;3229;42.674;23.282;2022-11-06T08:24:46;14.37;;;9.40;;
6392;SDS011;3229;42.674;23.282;2022-11-06T08:27:13;13.23;;;9.43;;
6392;SDS011;3229;42.674;23.282;2022-11-06T08:29:42;15.00;;;10.10;;
6392;SDS011;3229;42.674;23.282;2022-11-06T08:32:09;15.33;;;9.60;;
6392;SDS011;3229;42.674;23.282;2022-11-06T08:34:38;14.63;;;9.77;;
6392;SDS011;3229;42.674;23.282;2022-11-06T08:37:06;16.90;;;10.23;;
6392;SDS011;3229;42.674;23.282;2022-11-06T08:39:34;16.80;;;10.37;;
6392;SDS011;3229;42.674;23.282;2022-11-06T08:42:08;12.50;;;10.40;;
6392;SDS011;3229;42.674;23.282;2022-11-06T08:44:35;12.40;;;10.07;;
6392;SDS011;3229;42.674;23.282;2022-11-06T08:47:03;11.87;;;10.30;;
6392;SDS011;3229;42.674;23.282;2022-11-06T08:49:30;12.30;;;10.33;;
6392;SDS011;3229;42.674;23.282;2022-11-06T08:51:57;16.23;;;10.57;;
6392;SDS011;3229;42.674;23.282;2022-11-06T08:54:24;15.27;;;11.23;;
6392;SDS011;3229;42.674;23.282;2022-11-06T08:56:51;12.67;;;10.30;;
6392;SDS011;3229;42.674;23.282;2022-11-06T08:59:20;12.50;;;10.73;;
6392;SDS011;3229;42.674;23.282;2022-11-06T09:01:50;14.70;;;10.37;;
6392;SDS011;3229;42.674;23.282;2022-11-06T09:04:16;13.30;;;10.00;;
6392;SDS011;3229;42.674;23.282;2022-11-06T09:06:43;13.13;;;9.80;;
6392;SDS011;3229;42.674;23.282;2022-11-06T09:09:10;12.37;;;10.53;;
6392;SDS011;3229;42.674;23.282;2022-11-06T09:11:37;12.50;;;10.53;;
6392;SDS011;3229;42.674;23.282;2022-11-06T09:14:04;14.43;;;10.37;;
6392;SDS011;3229;42.674;23.282;2022-11-06T09:16:33;17.10;;;10.60;;
6392;SDS011;3229;42.674;23.282;2022-11-06T09:19:00;14.33;;;10.33;;
6392;SDS011;3229;42.674;23.282;2022-11-06T09:21:26;13.07;;;10.03;;
6392;SDS011;3229;42.674;23.282;2022-11-06T09:23:56;12.67;;;9.40;;
6392;SDS011;3229;42.674;23.282;2022-11-06T09:26:23;12.77;;;10.20;;
6392;SDS011;3229;42.674;23.282;2022-11-06T09:28:50;14.57;;;10.10;;
6392;SDS011;3229;42.674;23.282;2022-11-06T09:34:35;15.93;;;11.00;;
6392;SDS011;3229;42.674;23.282;2022-11-06T09:37:02;12.60;;;10.90;;
6392;SDS011;3229;42.674;23.282;2022-11-06T09:39:29;20.13;;;11.70;;
6392;SDS011;3229;42.674;23.282;2022-11-06T09:41:57;16.10;;;11.40;;
6392;SDS011;3229;42.674;23.282;2022-11-06T09:44:35;12.13;;;10.83;;
6392;SDS011;3229;42.674;23.282;2022-11-06T09:47:15;16.37;;;10.37;;
6392;SDS011;3229;42.674;23.282;2022-11-06T09:49:47;14.87;;;10.33;;
6392;SDS011;3229;42.674;23.282;2022-11-06T09:52:17;18.77;;;10.53;;
6392;SDS011;3229;42.674;23.282;2022-11-06T09:54:55;11.57;;;9.67;;
6392;SDS011;3229;42.674;23.282;2022-11-06T09:57:26;10.63;;;9.57;;
6392;SDS011;3229;42.674;23.282;2022-11-06T09:59:57;12.87;;;9.70;;
6392;SDS011;3229;42.674;23.282;2022-11-06T10:02:27;13.53;;;10.03;;
6392;SDS011;3229;42.674;23.282;2022-11-06T10:05:01;14.10;;;9.97;;
6392;SDS011;3229;42.674;23.282;2022-11-06T10:07:33;13.37;;;9.90;;
6392;SDS011;3229;42.674;23.282;2022-11-06T10:10:03;10.70;;;9.17;;
6392;SDS011;3229;42.674;23.282;2022-11-06T10:12:36;14.17;;;9.70;;
6392;SDS011;3229;42.674;23.282;2022-11-06T10:15:21;15.93;;;9.00;;
6392;SDS011;3229;42.674;23.282;2022-11-06T10:17:54;10.50;;;9.00;;
6392;SDS011;3229;42.674;23.282;2022-11-06T10:20:32;8.83;;;8.00;;
6392;SDS011;3229;42.674;23.282;2022-11-06T10:23:10;9.50;;;8.53;;
6392;SDS011;3229;42.674;23.282;2022-11-06T10:25:45;8.27;;;7.30;;
6392;SDS011;3229;42.674;23.282;2022-11-06T10:28:35;10.03;;;8.00;;
6392;SDS011;3229;42.674;23.282;2022-11-06T10:31:27;8.90;;;7.27;;
6392;SDS011;3229;42.674;23.282;2022-11-06T10:34:01;10.70;;;7.00;;
6392;SDS011;3229;42.674;23.282;2022-11-06T10:36:36;9.90;;;7.23;;
6392;SDS011;3229;42.674;23.282;2022-11-06T10:39:10;9.20;;;6.83;;
6392;SDS011;3229;42.674;23.282;2022-11-06T10:41:42;12.27;;;7.87;;
6392;SDS011;3229;42.674;23.282;2022-11-06T10:44:16;12.67;;;6.97;;
6392;SDS011;3229;42.674;23.282;2022-11-06T10:46:50;7.50;;;6.70;;
6392;SDS011;3229;42.674;23.282;2022-11-06T10:49:22;9.23;;;7.10;;
6392;SDS011;3229;42.674;23.282;2022-11-06T10:52:06;10.70;;;6.80;;
6392;SDS011;3229;42.674;23.282;2022-11-06T10:54:51;6.50;;;5.90;;
6392;SDS011;3229;42.674;23.282;2022-11-06T10:57:34;7.10;;;6.40;;
6392;SDS011;3229;42.674;23.282;2022-11-06T11:00:09;8.30;;;6.10;;
6392;SDS011;3229;42.674;23.282;2022-11-06T11:02:38;8.03;;;5.63;;
6392;SDS011;3229;42.674;23.282;2022-11-06T11:05:12;6.93;;;6.23;;
6392;SDS011;3229;42.674;23.282;2022-11-06T11:07:43;6.67;;;5.10;;
6392;SDS011;3229;42.674;23.282;2022-11-06T11:10:26;7.97;;;5.90;;
6392;SDS011;3229;42.674;23.282;2022-11-06T11:12:56;6.47;;;5.80;;
6392;SDS011;3229;42.674;23.282;2022-11-06T11:15:37;6.93;;;5.83;;
6392;SDS011;3229;42.674;23.282;2022-11-06T11:18:21;6.07;;;4.67;;
6392;SDS011;3229;42.674;23.282;2022-11-06T11:21:12;5.27;;;4.77;;
6392;SDS011;3229;42.674;23.282;2022-11-06T11:23:42;5.30;;;4.77;;
6392;SDS011;3229;42.674;23.282;2022-11-06T11:28:56;5.43;;;4.93;;
6392;SDS011;3229;42.674;23.282;2022-11-06T11:31:28;5.67;;;4.40;;
6392;SDS011;3229;42.674;23.282;2022-11-06T11:33:56;7.40;;;5.20;;
6392;SDS011;3229;42.674;23.282;2022-11-06T11:36:27;5.07;;;4.60;;
6392;SDS011;3229;42.674;23.282;2022-11-06T11:39:17;6.40;;;5.27;;
6392;SDS011;3229;42.674;23.282;2022-11-06T11:41:47;4.90;;;4.50;;
6392;SDS011;3229;42.674;23.282;2022-11-06T11:44:15;6.23;;;4.80;;
6392;SDS011;3229;42.674;23.282;2022-11-06T11:46:47;4.53;;;4.03;;
6392;SDS011;3229;42.674;23.282;2022-11-06T11:49:28;7.10;;;4.73;;
6392;SDS011;3229;42.674;23.282;2022-11-06T11:51:57;5.63;;;5.10;;
6392;SDS011;3229;42.674;23.282;2022-11-06T11:54:27;4.63;;;4.10;;
6392;SDS011;3229;42.674;23.282;2022-11-06T11:56:58;5.23;;;4.57;;
6392;SDS011;3229;42.674;23.282;2022-11-06T11:59:28;5.83;;;4.70;;
6392;SDS011;3229;42.674;23.282;2022-11-06T12:02:10;6.23;;;4.73;;
6392;SDS011;3229;42.674;23.282;2022-11-06T12:04:49;5.37;;;4.87;;
6392;SDS011;3229;42.674;23.282;2022-11-06T12:07:24;9.30;;;5.63;;
6392;SDS011;3229;42.674;23.282;2022-11-06T12:09:57;7.27;;;5.63;;
6392;SDS011;3229;42.674;23.282;2022-11-06T12:12:31;6.93;;;5.80;;
6392;SDS011;3229;42.674;23.282;2022-11-06T12:15:04;6.37;;;5.80;;
6392;SDS011;3229;42.674;23.282;2022-11-06T12:17:44;9.83;;;6.60;;
6392;SDS011;3229;42.674;23.282;2022-11-06T12:20:22;6.87;;;6.00;;
6392;SDS011;3229;42.674;23.282;2022-11-06T12:22:53;7.00;;;5.90;;
6392;SDS011;3229;42.674;23.282;2022-11-06T12:25:35;8.23;;;6.40;;
6392;SDS011;3229;42.674;23.282;2022-11-06T12:28:13;7.63;;;6.17;;
6392;SDS011;3229;42.674;23.282;2022-11-06T12:30:44;8.20;;;6.10;;
6392;SDS011;3229;42.674;23.282;2022-11-06T12:33:18;9.67;;;6.27;;
6392;SDS011;3229;42.674;23.282;2022-11-06T12:35:53;7.90;;;5.83;;
6392;SDS011;3229;42.674;23.282;2022-11-06T12:38:31;8.03;;;6.40;;
6392;SDS011;3229;42.674;23.282;2022-11-06T12:41:09;7.03;;;5.80;;
6392;SDS011;3229;42.674;23.282;2022-11-06T12:43:42;7.77;;;6.63;;
6392;SDS011;3229;42.674;23.282;2022-11-06T12:46:19;9.77;;;6.40;;
6392;SDS011;3229;42.674;23.282;2022-11-06T12:52:31;7.27;;;5.77;;
6392;SDS011;3229;42.674;23.282;2022-11-06T12:55:15;8.17;;;6.20;;
6392;SDS011;3229;42.674;23.282;2022-11-06T13:00:43;7.13;;;5.63;;
6392;SDS011;3229;42.674;23.282;2022-11-06T13:06:10;8.87;;;5.87;;
6392;SDS011;3229;42.674;23.282;2022-11-06T13:08:43;6.80;;;6.10;;
6392;SDS011;3229;42.674;23.282;2022-11-06T13:11:24;5.97;;;5.23;;
6392;SDS011;3229;42.674;23.282;2022-11-06T13:14:07;7.60;;;6.00;;
6392;SDS011;3229;42.674;23.282;2022-11-06T13:16:43;7.23;;;5.77;;
6392;SDS011;3229;42.674;23.282;2022-11-06T13:19:19;6.57;;;5.87;;
6392;SDS011;3229;42.674;23.282;2022-11-06T13:22:06;7.67;;;5.80;;
6392;SDS011;3229;42.674;23.282;2022-11-06T13:25:04;8.63;;;5.50;;
6392;SDS011;3229;42.674;23.282;2022-11-06T13:27:38;7.70;;;5.77;;
6392;SDS011;3229;42.674;23.282;2022-11-06T13:30:13;7.23;;;5.90;;
6392;SDS011;3229;42.674;23.282;2022-11-06T13:32:43;7.90;;;5.53;;
6392;SDS011;3229;42.674;23.282;2022-11-06T13:35:15;8.60;;;6.00;;
6392;SDS011;3229;42.674;23.282;2022-11-06T13:37:45;7.53;;;5.70;;
6392;SDS011;3229;42.674;23.282;2022-11-06T13:40:19;7.60;;;6.07;;
6392;SDS011;3229;42.674;23.282;2022-11-06T13:42:51;6.63;;;6.00;;
6392;SDS011;3229;42.674;23.282;2022-11-06T13:45:27;6.07;;;5.47;;
6392;SDS011;3229;42.674;23.282;2022-11-06T13:48:05;10.33;;;5.77;;
6392;SDS011;3229;42.674;23.282;2022-11-06T13:50:45;8.23;;;5.77;;
6392;SDS011;3229;42.674;23.282;2022-11-06T13:53:19;10.17;;;5.20;;
6392;SDS011;3229;42.674;23.282;2022-11-06T13:55:56;7.23;;;5.50;;
6392;SDS011;3229;42.674;23.282;2022-11-06T13:58:37;6.53;;;5.50;;
6392;SDS011;3229;42.674;23.282;2022-11-06T14:01:26;7.57;;;6.03;;
6392;SDS011;3229;42.674;23.282;2022-11-06T14:06:55;5.83;;;5.23;;
6392;SDS011;3229;42.674;23.282;2022-11-06T14:09:26;8.57;;;6.03;;
6392;SDS011;3229;42.674;23.282;2022-11-06T14:11:58;9.80;;;6.37;;
6392;SDS011;3229;42.674;23.282;2022-11-06T14:14:29;8.13;;;6.53;;
6392;SDS011;3229;42.674;23.282;2022-11-06T14:17:18;5.47;;;4.97;;
6392;SDS011;3229;42.674;23.282;2022-11-06T14:22:32;7.97;;;6.03;;
6392;SDS011;3229;42.674;23.282;2022-11-06T14:25:00;8.70;;;5.67;;
6392;SDS011;3229;42.674;23.282;2022-11-06T14:28:07;7.50;;;5.47;;
6392;SDS011;3229;42.674;23.282;2022-11-06T14:30:41;8.20;;;5.40;;
6392;SDS011;3229;42.674;23.282;2022-11-06T14:33:35;7.67;;;5.50;;
6392;SDS011;3229;42.674;23.282;2022-11-06T14:36:25;8.77;;;5.90;;
6392;SDS011;3229;42.674;23.282;2022-11-06T14:39:08;6.60;;;5.27;;
6392;SDS011;3229;42.674;23.282;2022-11-06T14:42:39;5.80;;;5.30;;
6392;SDS011;3229;42.674;23.282;2022-11-06T14:45:14;6.10;;;5.17;;
6392;SDS011;3229;42.674;23.282;2022-11-06T14:47:47;7.63;;;5.20;;
6392;SDS011;3229;42.674;23.282;2022-11-06T14:50:26;6.83;;;4.97;;
6392;SDS011;3229;42.674;23.282;2022-11-06T14:53:01;5.90;;;5.30;;
6392;SDS011;3229;42.674;23.282;2022-11-06T14:55:36;5.60;;;5.07;;
6392;SDS011;3229;42.674;23.282;2022-11-06T14:58:11;6.20;;;5.17;;
6392;SDS011;3229;42.674;23.282;2022-11-06T15:00:43;5.07;;;4.63;;
6392;SDS011;3229;42.674;23.282;2022-11-06T15:03:18;5.27;;;4.43;;
6392;SDS011;3229;42.674;23.282;2022-11-06T15:05:56;5.43;;;4.37;;
6392;SDS011;3229;42.674;23.282;2022-11-06T15:17:27;6.93;;;3.97;;
6392;SDS011;3229;42.674;23.282;2022-11-06T15:20:04;4.30;;;3.90;;
6392;SDS011;3229;42.674;23.282;2022-11-06T15:23:00;6.47;;;3.87;;
6392;SDS011;3229;42.674;23.282;2022-11-06T15:25:33;4.43;;;4.03;;
6392;SDS011;3229;42.674;23.282;2022-11-06T15:28:06;4.77;;;4.30;;
6392;SDS011;3229;42.674;23.282;2022-11-06T15:30:40;4.50;;;4.10;;
6392;SDS011;3229;42.674;23.282;2022-11-06T15:33:12;4.83;;;3.90;;
6392;SDS011;3229;42.674;23.282;2022-11-06T15:35:44;4.27;;;3.67;;
6392;SDS011;3229;42.674;23.282;2022-11-06T15:38:18;5.43;;;4.27;;
6392;SDS011;3229;42.674;23.282;2022-11-06T15:40:47;6.07;;;4.33;;
6392;SDS011;3229;42.674;23.282;2022-11-06T15:43:21;5.27;;;4.40;;
6392;SDS011;3229;42.674;23.282;2022-11-06T15:46:05;5.73;;;4.37;;
6392;SDS011;3229;42.674;23.282;2022-11-06T15:48:42;5.23;;;4.30;;
6392;SDS011;3229;42.674;23.282;2022-11-06T15:51:19;5.10;;;4.60;;
6392;SDS011;3229;42.674;23.282;2022-11-06T15:53:50;4.87;;;4.37;;
6392;SDS011;3229;42.674;23.282;2022-11-06T15:56:18;5.60;;;4.37;;
6392;SDS011;3229;42.674;23.282;2022-11-06T15:59:08;4.80;;;4.10;;
6392;SDS011;3229;42.674;23.282;2022-11-06T16:01:36;5.73;;;4.47;;